Weather at Leonardo da Vinci–Fiumicino Airport

Public forecast

Using degrees Celsius for public forecast. Weather courtesy of forecast.io.

Current aviation weather report (METAR) for Leonardo da Vinci–Fiumicino Airport

Retrieved 2020/10/22 03:20 UTC (0 seconds ago):

LIRF 220320Z 09005KT 9999 SCT045 12/10 Q1024 NOSIG

Aviation forecast (TAF) for Leonardo da Vinci–Fiumicino Airport

Retrieved 2020-10-22 00:00 UTC (3 hours ago):

TAF LIRF 212300Z 2200/2306 10006KT 9999 FEW030 BECMG 2209/2211 16012KT BECMG 2217/2219 10006KT